createdAt,value
2022-08-22T00:00:16.580Z,101220.97
2022-08-22T00:02:58.943Z,101299.53
2022-08-22T00:03:01.581Z,101605.75
2022-08-22T00:03:10.196Z,101369.06
2022-08-22T00:03:17.494Z,101214.41
2022-08-22T00:06:08.708Z,101216.59
2022-08-22T00:08:35.316Z,101221.59
2022-08-22T00:11:13.507Z,101221.13
2022-08-22T00:14:01.324Z,101214.78
2022-08-22T00:16:48.422Z,101203.72
2022-08-22T00:19:35.469Z,101208.66
2022-08-22T00:22:20.723Z,101196.97
2022-08-22T00:25:24.698Z,101202.19
2022-08-22T00:28:34.608Z,101199.72
2022-08-22T00:31:33.155Z,101197.53
2022-08-22T00:34:24.287Z,101205.78
2022-08-22T00:37:05.208Z,101202.44
2022-08-22T00:39:41.999Z,101205.28
2022-08-22T00:42:29.477Z,101208.81
2022-08-22T00:45:16.735Z,101219.09
2022-08-22T00:47:52.457Z,101209.56
2022-08-22T00:51:01.760Z,101206.34
2022-08-22T00:53:46.323Z,101204.56
2022-08-22T00:56:40.561Z,101196.13
2022-08-22T00:59:23.106Z,101197.25
2022-08-22T01:02:04.095Z,101194.13
2022-08-22T01:04:48.944Z,101185.72
2022-08-22T01:07:40.787Z,101179.81
2022-08-22T01:10:42.720Z,101166.63
2022-08-22T01:13:24.180Z,101160.25
2022-08-22T01:15:59.874Z,101152.88
2022-08-22T01:19:10.933Z,101144.63
2022-08-22T01:21:55.481Z,101144.34
2022-08-22T01:25:21.933Z,101134.81
2022-08-22T01:28:29.993Z,101135.28
2022-08-22T01:31:26.062Z,101142.50
2022-08-22T01:34:27.018Z,101145.34
2022-08-22T01:37:21.415Z,101130.59
2022-08-22T01:39:57.249Z,101121.75
2022-08-22T01:42:51.907Z,101122.19
2022-08-22T01:45:30.798Z,101123.81
2022-08-22T01:48:16.237Z,101118.34
2022-08-22T01:50:49.412Z,101129.94
2022-08-22T01:53:42.366Z,101125.34
2022-08-22T01:56:16.707Z,101113.94
2022-08-22T01:59:01.627Z,101116.34
2022-08-22T02:01:28.593Z,101101.22
2022-08-22T02:04:37.546Z,101105.91
2022-08-22T02:07:31.926Z,101108.59
2022-08-22T02:10:21.207Z,101104.25
2022-08-22T02:13:09.831Z,101122.19
2022-08-22T02:15:39.818Z,101113.25
2022-08-22T02:18:06.380Z,101113.97
2022-08-22T02:20:59.075Z,101094.84
2022-08-22T02:23:50.034Z,101097.09
2022-08-22T02:26:22.565Z,101090.81
2022-08-22T02:28:58.911Z,101089.69
2022-08-22T02:31:46.300Z,101087.63
2022-08-22T02:34:24.229Z,101090.03
2022-08-22T02:37:17.936Z,101089.88
2022-08-22T02:39:54.089Z,101085.09
2022-08-22T02:42:29.036Z,101027.53
2022-08-22T02:45:11.618Z,101026.78
2022-08-22T02:48:00.781Z,101022.47
2022-08-22T02:50:46.173Z,101015.53
2022-08-22T02:53:27.165Z,101008.72
2022-08-22T02:55:56.796Z,101000.25
2022-08-22T02:58:29.164Z,100990.25
2022-08-22T03:00:58.925Z,100980.78
2022-08-22T03:03:28.921Z,100981.59
2022-08-22T03:06:33.354Z,100984.97
2022-08-22T03:09:12.261Z,100985.66
2022-08-22T03:11:42.883Z,100988.16
2022-08-22T03:14:22.562Z,100977.25
2022-08-22T03:16:55.377Z,100972.50
2022-08-22T03:19:30.443Z,100972.50
2022-08-22T03:22:02.741Z,100982.41
2022-08-22T03:24:48.457Z,100985.03
2022-08-22T03:27:33.582Z,100996.38
2022-08-22T03:30:13.653Z,100985.03
2022-08-22T03:32:55.564Z,100984.91
2022-08-22T03:35:33.319Z,100991.53
2022-08-22T03:38:15.623Z,100998.38
2022-08-22T03:40:58.566Z,100991.19
2022-08-22T03:43:46.914Z,100987.81
2022-08-22T03:46:51.346Z,100952.50
2022-08-22T03:49:59.516Z,100947.28
2022-08-22T03:52:32.432Z,100950.03
2022-08-22T03:55:02.172Z,100947.75
2022-08-22T03:57:53.451Z,100939.69
2022-08-22T04:00:47.440Z,100946.50
2022-08-22T04:03:20.072Z,100958.94
2022-08-22T04:05:56.743Z,100959.31
2022-08-22T04:08:43.778Z,100955.22
2022-08-22T04:11:39.444Z,100964.88
2022-08-22T04:14:28.238Z,100969.59
2022-08-22T04:17:30.794Z,100968.25
2022-08-22T04:20:16.655Z,100969.13
2022-08-22T04:23:16.062Z,100971.00
2022-08-22T04:25:50.486Z,100972.25
2022-08-22T04:28:31.533Z,100964.41
2022-08-22T04:31:01.223Z,100971.09
2022-08-22T04:33:38.011Z,100975.31
2022-08-22T04:36:26.428Z,100982.38
2022-08-22T04:39:13.157Z,100989.09
2022-08-22T04:41:58.356Z,100985.50
2022-08-22T04:44:53.717Z,100989.22
2022-08-22T04:47:30.402Z,100984.47
2022-08-22T04:50:06.309Z,100992.75
2022-08-22T04:52:48.381Z,100995.97
2022-08-22T04:55:24.592Z,100998.84
2022-08-22T04:57:51.262Z,101001.94
2022-08-22T05:00:18.204Z,101007.28
2022-08-22T05:02:51.233Z,101007.25
2022-08-22T05:05:23.781Z,101007.97
2022-08-22T05:08:03.187Z,101013.81
2022-08-22T05:10:42.212Z,101013.34
2022-08-22T05:13:18.270Z,101008.59
2022-08-22T05:15:48.947Z,101014.97
2022-08-22T05:18:24.058Z,101003.44
2022-08-22T05:21:01.835Z,101006.44
2022-08-22T05:23:35.951Z,101007.34
2022-08-22T05:26:06.089Z,101009.31
2022-08-22T05:28:41.430Z,101006.69
2022-08-22T05:31:18.480Z,101002.16
2022-08-22T05:33:56.931Z,101010.63
2022-08-22T05:36:35.719Z,101022.22
2022-08-22T05:39:25.399Z,101023.13
2022-08-22T05:41:56.881Z,101026.03
2022-08-22T05:44:27.960Z,101024.09
2022-08-22T05:47:02.458Z,101028.78
2022-08-22T05:49:50.863Z,101034.03
2022-08-22T05:52:50.944Z,101036.03
2022-08-22T05:55:17.536Z,101050.53
2022-08-22T05:57:50.535Z,101062.84
2022-08-22T06:00:25.646Z,101064.00
2022-08-22T06:03:09.493Z,101078.31
2022-08-22T06:05:42.663Z,101078.59
2022-08-22T06:08:37.687Z,101080.22
2022-08-22T06:11:17.404Z,101099.41
2022-08-22T06:13:57.403Z,101108.66
2022-08-22T06:16:34.366Z,101113.88
2022-08-22T06:19:04.155Z,101122.09
2022-08-22T06:21:50.598Z,101142.22
2022-08-22T06:24:27.390Z,101145.91
2022-08-22T06:27:01.946Z,101150.63
2022-08-22T06:29:37.045Z,101189.97
2022-08-22T06:32:12.963Z,101250.06
2022-08-22T06:34:43.087Z,101290.25
2022-08-22T06:37:17.912Z,101350.31
2022-08-22T06:39:49.294Z,101458.53
2022-08-22T06:42:25.738Z,101606.22
2022-08-22T06:45:10.708Z,101673.78
2022-08-22T06:47:50.267Z,101718.50
2022-08-22T06:50:32.438Z,101739.41
2022-08-22T06:53:15.335Z,101731.63
2022-08-22T06:55:47.493Z,101732.19
2022-08-22T06:58:37.307Z,101722.28
2022-08-22T07:01:12.154Z,101741.53
2022-08-22T07:04:03.288Z,101754.03
2022-08-22T07:06:32.241Z,101746.66
2022-08-22T07:08:58.973Z,101761.09
2022-08-22T07:11:32.573Z,101768.47
2022-08-22T07:14:16.562Z,101791.19
2022-08-22T07:17:09.520Z,101793.38
2022-08-22T07:19:45.286Z,101801.13
2022-08-22T07:22:21.884Z,101802.41
2022-08-22T07:24:55.178Z,101788.69
2022-08-22T07:27:48.781Z,101801.78
2022-08-22T07:30:27.462Z,101813.63
2022-08-22T07:32:57.912Z,101806.06
2022-08-22T07:35:53.265Z,101794.66
2022-08-22T07:38:42.942Z,101783.66
2022-08-22T07:41:21.116Z,101773.63
2022-08-22T07:43:57.224Z,101775.06
2022-08-22T07:46:37.715Z,101767.47
2022-08-22T07:49:15.357Z,101748.13
2022-08-22T07:51:47.690Z,101751.97
2022-08-22T07:54:20.172Z,101728.88
2022-08-22T07:57:08.048Z,101728.22
2022-08-22T07:59:46.564Z,101753.13
2022-08-22T08:02:15.843Z,101723.50
2022-08-22T08:04:43.291Z,101737.78
2022-08-22T08:07:14.914Z,101741.13
2022-08-22T08:09:47.001Z,101741.25
2022-08-22T08:12:15.747Z,101730.59
2022-08-22T08:14:45.463Z,101743.69
2022-08-22T08:17:21.467Z,101733.53
2022-08-22T08:19:51.024Z,101736.75
2022-08-22T08:22:25.450Z,101743.00
2022-08-22T08:24:55.995Z,101728.44
2022-08-22T08:27:45.076Z,101712.66
2022-08-22T08:30:21.251Z,101685.16
2022-08-22T08:33:25.050Z,101710.25
2022-08-22T08:36:06.185Z,101705.16
2022-08-22T08:38:46.559Z,101723.69
2022-08-22T08:41:28.395Z,101738.38
2022-08-22T08:44:13.422Z,101761.50
2022-08-22T08:46:57.472Z,101760.13
2022-08-22T08:49:43.038Z,101774.25
2022-08-22T08:52:34.581Z,101797.66
2022-08-22T08:55:21.811Z,101779.97
2022-08-22T08:58:20.223Z,101796.84
2022-08-22T09:01:19.509Z,101770.75
2022-08-22T09:04:15.301Z,101779.97
2022-08-22T09:06:59.284Z,101812.88
2022-08-22T09:09:52.415Z,101761.13
2022-08-22T09:12:56.913Z,101726.63
2022-08-22T09:16:05.209Z,101726.25
2022-08-22T09:19:02.569Z,101691.13
2022-08-22T09:21:51.980Z,101696.78
2022-08-22T09:24:46.924Z,101674.00
2022-08-22T09:27:18.423Z,101650.47
2022-08-22T09:30:11.594Z,101663.22
2022-08-22T09:32:59.283Z,101700.66
2022-08-22T09:36:00.993Z,101707.06
2022-08-22T09:38:49.748Z,101679.28
2022-08-22T09:41:37.772Z,101693.44
2022-08-22T09:44:04.466Z,101708.19
2022-08-22T09:46:52.794Z,101712.56
2022-08-22T09:49:33.454Z,101715.69
2022-08-22T09:52:33.939Z,101738.19
2022-08-22T09:55:24.248Z,101751.59
2022-08-22T09:58:16.238Z,101736.31
2022-08-22T10:00:47.420Z,101726.75
2022-08-22T10:03:30.488Z,101688.03
2022-08-22T10:06:14.238Z,101661.22
2022-08-22T10:08:50.535Z,101671.28
2022-08-22T10:11:32.694Z,101662.00
2022-08-22T10:14:02.562Z,101666.78
2022-08-22T10:17:27.935Z,101681.47
2022-08-22T10:20:03.680Z,101705.81
2022-08-22T10:22:51.417Z,101716.13
2022-08-22T10:25:33.932Z,101740.72
2022-08-22T10:28:28.442Z,101730.97
2022-08-22T10:31:30.686Z,101758.72
2022-08-22T10:34:09.587Z,101785.47
2022-08-22T10:36:52.983Z,101780.22
2022-08-22T10:39:33.208Z,101800.22
2022-08-22T10:42:19.457Z,101801.69
2022-08-22T10:45:36.292Z,101800.06
2022-08-22T10:48:23.431Z,101803.75
2022-08-22T10:51:01.868Z,101799.06
2022-08-22T10:53:42.775Z,101796.00
2022-08-22T10:56:35.150Z,101798.56
2022-08-22T10:59:20.110Z,101792.63
2022-08-22T11:02:05.591Z,101786.81
2022-08-22T11:05:02.974Z,101790.91
2022-08-22T11:07:48.768Z,101766.69
2022-08-22T11:10:35.062Z,101766.38
2022-08-22T11:13:11.799Z,101765.28
2022-08-22T11:15:44.773Z,101759.56
2022-08-22T11:18:41.944Z,101768.59
2022-08-22T11:21:36.735Z,101771.91
2022-08-22T11:24:55.764Z,101749.41
2022-08-22T11:27:45.293Z,101753.59
2022-08-22T11:30:20.743Z,101704.97
2022-08-22T11:33:06.225Z,101695.56
2022-08-22T11:35:54.782Z,101720.53
2022-08-22T11:38:36.203Z,101696.94
2022-08-22T11:41:16.912Z,101662.50
2022-08-22T11:43:52.842Z,101678.78
2022-08-22T11:46:29.011Z,101671.31
2022-08-22T11:49:14.423Z,101683.94
2022-08-22T11:51:53.161Z,101715.53
2022-08-22T11:54:46.490Z,101722.75
2022-08-22T11:57:38.149Z,101742.47
2022-08-22T12:00:23.503Z,101759.50
2022-08-22T12:03:18.136Z,101750.81
2022-08-22T12:06:07.763Z,101758.16
2022-08-22T12:08:35.383Z,101756.09
2022-08-22T12:11:35.972Z,101764.66
2022-08-22T12:14:08.110Z,101765.75
2022-08-22T12:17:06.418Z,101785.72
2022-08-22T12:20:12.760Z,101787.91
2022-08-22T12:22:56.894Z,101791.19
2022-08-22T12:25:33.037Z,101793.13
2022-08-22T12:28:02.512Z,101788.09
2022-08-22T12:31:12.236Z,101785.00
2022-08-22T12:33:57.285Z,101776.09
2022-08-22T12:36:42.855Z,101784.16
2022-08-22T12:39:34.545Z,101786.78
2022-08-22T12:42:30.410Z,101777.16
2022-08-22T12:45:15.596Z,101767.00
2022-08-22T12:48:00.790Z,101764.00
2022-08-22T12:50:43.817Z,101771.38
2022-08-22T12:53:42.495Z,101767.25
2022-08-22T12:57:01.793Z,101756.59
2022-08-22T12:59:33.795Z,101758.56
2022-08-22T13:02:25.245Z,101752.91
2022-08-22T13:04:59.959Z,101762.75
2022-08-22T13:07:34.519Z,101765.84
2022-08-22T13:10:26.231Z,101752.09
2022-08-22T13:12:55.975Z,101768.69
2022-08-22T13:15:31.171Z,101778.56
2022-08-22T13:18:18.974Z,101781.84
2022-08-22T13:20:53.256Z,101786.22
2022-08-22T13:23:31.468Z,101761.75
2022-08-22T13:26:24.548Z,101744.03
2022-08-22T13:29:27.122Z,101738.63
2022-08-22T13:32:01.500Z,101728.56
2022-08-22T13:34:57.181Z,101735.84
2022-08-22T13:37:52.362Z,101749.69
2022-08-22T13:40:37.009Z,101751.03
2022-08-22T13:43:11.727Z,101746.97
2022-08-22T13:45:42.870Z,101759.09
2022-08-22T13:48:14.986Z,101749.31
2022-08-22T13:51:12.151Z,101752.63
2022-08-22T13:53:50.019Z,101744.81
2022-08-22T13:56:47.929Z,101728.53
2022-08-22T13:59:49.462Z,101735.31
2022-08-22T14:02:43.743Z,101726.47
2022-08-22T14:05:24.486Z,101726.09
2022-08-22T14:08:21.067Z,101706.09
2022-08-22T14:10:57.784Z,101708.22
2022-08-22T14:13:53.175Z,101692.97
2022-08-22T14:16:24.808Z,101673.34
2022-08-22T14:19:00.621Z,101679.38
2022-08-22T14:21:40.742Z,101673.69
2022-08-22T14:24:25.889Z,101666.56
2022-08-22T14:27:05.613Z,101659.91
2022-08-22T14:29:40.477Z,101666.50
2022-08-22T14:32:30.931Z,101662.66
2022-08-22T14:35:23.451Z,101638.50
2022-08-22T14:38:35.190Z,101644.03
2022-08-22T14:41:09.877Z,101652.94
2022-08-22T14:43:55.083Z,101655.94
2022-08-22T14:46:34.013Z,101672.00
2022-08-22T14:49:16.383Z,101653.66
2022-08-22T14:51:58.070Z,101637.88
2022-08-22T14:54:29.066Z,101660.28
2022-08-22T14:56:57.267Z,101667.88
2022-08-22T14:59:27.005Z,101665.25
2022-08-22T15:02:00.070Z,101650.94
2022-08-22T15:04:35.335Z,101654.38
2022-08-22T15:07:02.421Z,101662.38
2022-08-22T15:09:29.165Z,101685.69
2022-08-22T15:11:58.866Z,101686.69
2022-08-22T15:14:37.601Z,101673.34
2022-08-22T15:17:08.802Z,101684.44
2022-08-22T15:19:47.167Z,101671.63
2022-08-22T15:22:28.032Z,101676.47
2022-08-22T15:25:04.720Z,101671.59
2022-08-22T15:27:34.932Z,101682.69
2022-08-22T15:30:20.462Z,101675.22
2022-08-22T15:32:49.112Z,101644.69
2022-08-22T15:35:29.923Z,101646.91
2022-08-22T15:38:08.149Z,101635.63
2022-08-22T15:40:45.637Z,101628.16
2022-08-22T15:43:26.718Z,101638.69
2022-08-22T15:46:25.936Z,101651.72
2022-08-22T15:49:01.532Z,101654.81
2022-08-22T15:51:37.621Z,101668.47
2022-08-22T15:54:24.399Z,101657.59
2022-08-22T15:57:10.173Z,101661.06
2022-08-22T15:59:48.154Z,101674.75
2022-08-22T16:02:35.442Z,101663.50
2022-08-22T16:05:11.487Z,101676.84
2022-08-22T16:07:42.745Z,101661.56
2022-08-22T16:10:24.818Z,101648.41
2022-08-22T16:13:31.210Z,101667.28
2022-08-22T16:16:09.763Z,101664.84
2022-08-22T16:18:39.786Z,101665.88
2022-08-22T16:21:10.659Z,101671.06
2022-08-22T16:23:46.470Z,101691.19
2022-08-22T16:26:40.381Z,101676.81
2022-08-22T16:29:13.483Z,101676.81
2022-08-22T16:31:44.049Z,101676.13
2022-08-22T16:34:16.835Z,101667.63
2022-08-22T16:37:08.597Z,101664.69
2022-08-22T16:39:37.524Z,101673.00
2022-08-22T16:44:47.965Z,101662.06
2022-08-22T16:50:24.049Z,101650.88
2022-08-22T16:53:05.514Z,101665.41
2022-08-22T17:01:47.909Z,101675.13
2022-08-22T17:04:21.823Z,101681.44
2022-08-22T17:07:19.592Z,101684.91
2022-08-22T17:10:07.907Z,101687.66
2022-08-22T17:13:03.796Z,101679.91
2022-08-22T17:15:54.731Z,101682.63
2022-08-22T17:18:50.271Z,101675.00
2022-08-22T17:21:26.145Z,101685.34
2022-08-22T17:24:33.622Z,101689.34
2022-08-22T17:27:27.090Z,101692.44
2022-08-22T17:30:07.257Z,101701.81
2022-08-22T17:33:08.857Z,101688.16
2022-08-22T17:35:51.453Z,101674.28
2022-08-22T17:38:42.810Z,101682.50
2022-08-22T17:41:32.873Z,101683.63
2022-08-22T17:44:13.899Z,101682.59
2022-08-22T17:47:08.590Z,101685.34
2022-08-22T17:49:41.336Z,101685.78
2022-08-22T17:52:48.402Z,101704.94
2022-08-22T17:58:37.463Z,101720.88
2022-08-22T18:01:15.869Z,101720.25
2022-08-22T18:04:01.105Z,101718.13
2022-08-22T18:06:34.422Z,101723.09
2022-08-22T18:09:18.765Z,101725.31
2022-08-22T18:12:20.391Z,101730.91
2022-08-22T18:14:59.983Z,101718.09
2022-08-22T18:17:47.248Z,101718.00
2022-08-22T18:20:33.246Z,101719.75
2022-08-22T18:23:39.192Z,101726.16
2022-08-22T18:26:16.669Z,101729.53
2022-08-22T18:29:12.114Z,101732.34
2022-08-22T18:31:59.965Z,101726.56
2022-08-22T18:34:45.208Z,101723.50
2022-08-22T18:37:43.992Z,101720.38
2022-08-22T18:40:33.461Z,101728.72
2022-08-22T18:43:37.902Z,101724.28
2022-08-22T18:46:30.014Z,101720.31
2022-08-22T18:49:14.781Z,101717.47
2022-08-22T18:51:43.106Z,101719.69
2022-08-22T18:54:13.322Z,101725.66
2022-08-22T18:56:47.884Z,101717.69
2022-08-22T18:59:38.947Z,101724.00
2022-08-22T19:02:33.651Z,101727.16
2022-08-22T19:05:01.508Z,101722.38
2022-08-22T19:07:47.001Z,101718.63
2022-08-22T19:10:16.648Z,101709.19
2022-08-22T19:13:08.124Z,101711.97
2022-08-22T19:15:45.160Z,101716.16
2022-08-22T19:18:34.366Z,101719.09
2022-08-22T19:21:44.234Z,101715.44
2022-08-22T19:24:35.862Z,101714.44
2022-08-22T19:27:25.044Z,101721.16
2022-08-22T19:30:01.913Z,101709.69
2022-08-22T19:32:47.079Z,101708.97
2022-08-22T19:35:27.039Z,101712.03
2022-08-22T19:38:02.653Z,101715.72
2022-08-22T19:40:44.594Z,101712.06
2022-08-22T19:43:40.481Z,101709.50
2022-08-22T19:46:11.962Z,101706.59
2022-08-22T19:48:49.185Z,101707.88
2022-08-22T19:51:28.182Z,101704.88
2022-08-22T19:54:00.886Z,101704.88
2022-08-22T19:56:55.577Z,101691.66
2022-08-22T19:59:35.271Z,101684.09
2022-08-22T20:02:31.886Z,101693.84
2022-08-22T20:05:22.264Z,101684.75
2022-08-22T20:08:07.511Z,101677.78
2022-08-22T20:11:32.510Z,101672.88
2022-08-22T20:14:22.421Z,101656.50
2022-08-22T20:17:26.356Z,101667.00
2022-08-22T20:20:17.604Z,101667.72
2022-08-22T20:23:11.232Z,101659.03
2022-08-22T20:25:43.160Z,101659.16
2022-08-22T20:28:32.687Z,101646.78
2022-08-22T20:31:03.558Z,101647.09
2022-08-22T20:33:41.188Z,101648.28
2022-08-22T20:36:27.212Z,101650.53
2022-08-22T20:39:01.835Z,101637.13
2022-08-22T20:41:44.628Z,101642.69
2022-08-22T20:44:33.885Z,101634.09
2022-08-22T20:47:07.082Z,101626.97
2022-08-22T20:49:46.103Z,101632.78
2022-08-22T20:52:34.887Z,101626.13
2022-08-22T20:55:07.519Z,101607.81
2022-08-22T20:57:43.518Z,101609.56
2022-08-22T21:00:14.740Z,101604.53
2022-08-22T21:02:48.044Z,101603.47
2022-08-22T21:05:14.864Z,101596.63
2022-08-22T21:07:46.693Z,101584.78
2022-08-22T21:10:44.287Z,101581.16
2022-08-22T21:13:22.206Z,101582.00
2022-08-22T21:15:52.490Z,101576.50
2022-08-22T21:18:28.195Z,101565.44
2022-08-22T21:21:03.697Z,101570.03
2022-08-22T21:23:36.612Z,101548.88
2022-08-22T21:26:08.296Z,101560.38
2022-08-22T21:28:54.221Z,101548.94
2022-08-22T21:31:25.619Z,101547.19
2022-08-22T21:33:55.188Z,101536.88
2022-08-22T21:36:27.533Z,101535.91
2022-08-22T21:38:58.456Z,101529.53
2022-08-22T21:41:47.499Z,101518.66
2022-08-22T21:44:41.513Z,101520.41
2022-08-22T21:47:30.599Z,101517.19
2022-08-22T21:50:13.353Z,101508.94
2022-08-22T21:52:44.098Z,101509.19
2022-08-22T21:55:15.927Z,101504.78
2022-08-22T21:57:43.419Z,101498.47
2022-08-22T22:00:49.632Z,101491.94
2022-08-22T22:03:23.406Z,101489.38
2022-08-22T22:05:52.851Z,101482.25
2022-08-22T22:08:19.555Z,101474.88
2022-08-22T22:10:48.707Z,101474.16
2022-08-22T22:13:16.799Z,101475.78
2022-08-22T22:15:45.702Z,101465.59
2022-08-22T22:18:14.321Z,101468.53
2022-08-22T22:20:42.365Z,101456.19
2022-08-22T22:23:09.754Z,101444.69
2022-08-22T22:25:41.749Z,101449.56
2022-08-22T22:28:14.426Z,101444.13
2022-08-22T22:30:42.554Z,101444.06
2022-08-22T22:33:09.759Z,101449.03
2022-08-22T22:35:40.684Z,101447.53
2022-08-22T22:38:08.090Z,101444.63
2022-08-22T22:40:35.334Z,101441.00
2022-08-22T22:43:02.734Z,101446.69
2022-08-22T22:45:29.622Z,101438.56
2022-08-22T22:47:56.930Z,101439.41
2022-08-22T22:50:23.946Z,101444.94
2022-08-22T22:52:50.753Z,101450.50
2022-08-22T22:55:24.212Z,101450.59
2022-08-22T22:57:59.106Z,101450.75
2022-08-22T23:00:30.615Z,101452.81
2022-08-22T23:03:00.214Z,101457.13
2022-08-22T23:05:27.695Z,101461.84
2022-08-22T23:07:54.437Z,101466.72
2022-08-22T23:10:24.132Z,101461.06
2022-08-22T23:12:50.833Z,101466.28
2022-08-22T23:15:17.652Z,101468.06
2022-08-22T23:17:44.429Z,101460.91
2022-08-22T23:20:11.698Z,101466.19
2022-08-22T23:22:40.256Z,101465.00
2022-08-22T23:25:07.406Z,101475.09
2022-08-22T23:27:34.180Z,101474.28
2022-08-22T23:30:02.181Z,101474.75
2022-08-22T23:32:29.021Z,101479.66
2022-08-22T23:34:56.218Z,101478.94
2022-08-22T23:37:23.268Z,101491.13
2022-08-22T23:39:50.208Z,101485.72
2022-08-22T23:42:18.220Z,101492.16
2022-08-22T23:44:45.954Z,101494.78
2022-08-22T23:47:14.679Z,101493.94
2022-08-22T23:49:42.461Z,101496.84
2022-08-22T23:52:11.838Z,101507.75
2022-08-22T23:54:38.599Z,101508.34
2022-08-22T23:57:12.080Z,101515.59
2022-08-22T23:59:44.549Z,101517.31
